sensor_id;sensor_type;location;lat;lon;timestamp;temperature;humidity
4312;DHT22;2169;49.086;9.284;2023-02-26T00:00:08;1.60;59.50
4312;DHT22;2169;49.086;9.284;2023-02-26T00:02:39;1.50;59.40
4312;DHT22;2169;49.086;9.284;2023-02-26T00:05:08;1.50;59.40
4312;DHT22;2169;49.086;9.284;2023-02-26T00:07:35;1.50;59.40
4312;DHT22;2169;49.086;9.284;2023-02-26T00:10:03;1.50;59.40
4312;DHT22;2169;49.086;9.284;2023-02-26T00:12:32;1.50;59.40
4312;DHT22;2169;49.086;9.284;2023-02-26T00:15:00;1.40;59.30
4312;DHT22;2169;49.086;9.284;2023-02-26T00:17:41;1.40;59.30
4312;DHT22;2169;49.086;9.284;2023-02-26T00:20:11;1.40;59.30
4312;DHT22;2169;49.086;9.284;2023-02-26T00:22:39;1.30;59.30
4312;DHT22;2169;49.086;9.284;2023-02-26T00:25:07;1.30;59.30
4312;DHT22;2169;49.086;9.284;2023-02-26T00:27:37;1.30;59.30
4312;DHT22;2169;49.086;9.284;2023-02-26T00:30:06;1.50;59.20
4312;DHT22;2169;49.086;9.284;2023-02-26T00:32:34;1.30;59.20
4312;DHT22;2169;49.086;9.284;2023-02-26T00:35:02;1.30;59.20
4312;DHT22;2169;49.086;9.284;2023-02-26T00:37:44;1.20;59.10
4312;DHT22;2169;49.086;9.284;2023-02-26T00:40:20;1.20;59.10
4312;DHT22;2169;49.086;9.284;2023-02-26T00:42:50;1.10;59.00
4312;DHT22;2169;49.086;9.284;2023-02-26T00:45:18;1.10;59.10
4312;DHT22;2169;49.086;9.284;2023-02-26T00:47:49;1.10;59.20
4312;DHT22;2169;49.086;9.284;2023-02-26T00:50:20;1.00;59.10
4312;DHT22;2169;49.086;9.284;2023-02-26T00:52:56;1.00;59.10
4312;DHT22;2169;49.086;9.284;2023-02-26T00:55:28;1.00;59.10
4312;DHT22;2169;49.086;9.284;2023-02-26T00:57:57;0.90;59.00
4312;DHT22;2169;49.086;9.284;2023-02-26T01:00:25;0.90;59.00
4312;DHT22;2169;49.086;9.284;2023-02-26T01:02:52;0.90;59.00
4312;DHT22;2169;49.086;9.284;2023-02-26T01:05:20;0.90;59.00
4312;DHT22;2169;49.086;9.284;2023-02-26T01:07:55;0.80;58.90
4312;DHT22;2169;49.086;9.284;2023-02-26T01:10:26;0.80;59.00
4312;DHT22;2169;49.086;9.284;2023-02-26T01:12:53;0.80;59.00
4312;DHT22;2169;49.086;9.284;2023-02-26T01:15:24;0.80;59.00
4312;DHT22;2169;49.086;9.284;2023-02-26T01:17:54;0.70;58.80
4312;DHT22;2169;49.086;9.284;2023-02-26T01:20:23;0.70;58.90
4312;DHT22;2169;49.086;9.284;2023-02-26T01:22:54;0.70;58.90
4312;DHT22;2169;49.086;9.284;2023-02-26T01:25:25;0.70;58.90
4312;DHT22;2169;49.086;9.284;2023-02-26T01:27:54;0.60;58.90
4312;DHT22;2169;49.086;9.284;2023-02-26T01:30:25;0.60;58.90
4312;DHT22;2169;49.086;9.284;2023-02-26T01:32:57;0.60;58.90
4312;DHT22;2169;49.086;9.284;2023-02-26T01:35:39;0.60;59.00
4312;DHT22;2169;49.086;9.284;2023-02-26T01:38:15;0.50;59.00
4312;DHT22;2169;49.086;9.284;2023-02-26T01:41:16;0.60;59.10
4312;DHT22;2169;49.086;9.284;2023-02-26T01:43:56;0.50;59.00
4312;DHT22;2169;49.086;9.284;2023-02-26T01:46:32;0.50;59.00
4312;DHT22;2169;49.086;9.284;2023-02-26T01:49:01;0.50;59.10
4312;DHT22;2169;49.086;9.284;2023-02-26T01:51:53;0.50;59.00
4312;DHT22;2169;49.086;9.284;2023-02-26T01:54:22;0.50;59.10
4312;DHT22;2169;49.086;9.284;2023-02-26T01:56:52;0.40;59.00
4312;DHT22;2169;49.086;9.284;2023-02-26T01:59:22;0.40;59.10
4312;DHT22;2169;49.086;9.284;2023-02-26T02:01:53;0.40;59.10
4312;DHT22;2169;49.086;9.284;2023-02-26T02:04:23;0.40;59.10
4312;DHT22;2169;49.086;9.284;2023-02-26T02:06:51;0.30;59.10
4312;DHT22;2169;49.086;9.284;2023-02-26T02:09:19;0.30;59.10
4312;DHT22;2169;49.086;9.284;2023-02-26T02:14:48;0.30;59.10
4312;DHT22;2169;49.086;9.284;2023-02-26T02:17:24;0.30;59.20
4312;DHT22;2169;49.086;9.284;2023-02-26T02:20:10;0.20;59.10
4312;DHT22;2169;49.086;9.284;2023-02-26T02:23:01;0.30;59.20
4312;DHT22;2169;49.086;9.284;2023-02-26T02:28:45;0.20;59.20
4312;DHT22;2169;49.086;9.284;2023-02-26T02:31:21;0.20;59.20
4312;DHT22;2169;49.086;9.284;2023-02-26T02:33:53;0.10;59.10
4312;DHT22;2169;49.086;9.284;2023-02-26T02:36:26;0.10;59.10
4312;DHT22;2169;49.086;9.284;2023-02-26T02:38:57;0.10;59.10
4312;DHT22;2169;49.086;9.284;2023-02-26T02:41:29;0.10;59.10
4312;DHT22;2169;49.086;9.284;2023-02-26T02:44:01;0.30;59.20
4312;DHT22;2169;49.086;9.284;2023-02-26T02:46:34;0.20;59.20
4312;DHT22;2169;49.086;9.284;2023-02-26T02:49:07;0.10;59.10
4312;DHT22;2169;49.086;9.284;2023-02-26T02:51:38;0.10;59.10
4312;DHT22;2169;49.086;9.284;2023-02-26T02:54:10;0.10;59.20
4312;DHT22;2169;49.086;9.284;2023-02-26T02:56:44;0.10;59.20
4312;DHT22;2169;49.086;9.284;2023-02-26T02:59:16;0.00;59.20
4312;DHT22;2169;49.086;9.284;2023-02-26T03:01:48;0.00;59.20
4312;DHT22;2169;49.086;9.284;2023-02-26T03:04:17;0.00;59.20
4312;DHT22;2169;49.086;9.284;2023-02-26T03:06:44;0.00;59.20
4312;DHT22;2169;49.086;9.284;2023-02-26T03:09:14;0.00;59.20
4312;DHT22;2169;49.086;9.284;2023-02-26T03:11:41;0.00;59.20
4312;DHT22;2169;49.086;9.284;2023-02-26T03:14:09;-0.10;59.20
4312;DHT22;2169;49.086;9.284;2023-02-26T03:16:59;-0.10;59.20
4312;DHT22;2169;49.086;9.284;2023-02-26T03:19:32;-0.10;59.20
4312;DHT22;2169;49.086;9.284;2023-02-26T03:22:05;-0.10;59.30
4312;DHT22;2169;49.086;9.284;2023-02-26T03:24:36;-0.10;59.30
4312;DHT22;2169;49.086;9.284;2023-02-26T03:27:08;-0.10;59.30
4312;DHT22;2169;49.086;9.284;2023-02-26T03:29:39;-0.10;59.30
4312;DHT22;2169;49.086;9.284;2023-02-26T03:32:13;-0.10;59.30
4312;DHT22;2169;49.086;9.284;2023-02-26T03:34:46;-0.20;59.30
4312;DHT22;2169;49.086;9.284;2023-02-26T03:37:18;-0.20;59.30
4312;DHT22;2169;49.086;9.284;2023-02-26T03:39:50;-0.30;59.30
4312;DHT22;2169;49.086;9.284;2023-02-26T03:42:21;-0.30;59.40
4312;DHT22;2169;49.086;9.284;2023-02-26T03:44:53;-0.40;59.30
4312;DHT22;2169;49.086;9.284;2023-02-26T03:47:24;-0.30;59.50
4312;DHT22;2169;49.086;9.284;2023-02-26T03:49:54;-0.40;59.40
4312;DHT22;2169;49.086;9.284;2023-02-26T03:52:25;-0.40;59.40
4312;DHT22;2169;49.086;9.284;2023-02-26T03:54:56;-0.40;59.50
4312;DHT22;2169;49.086;9.284;2023-02-26T03:57:26;-0.50;59.50
4312;DHT22;2169;49.086;9.284;2023-02-26T03:59:53;-0.50;59.50
4312;DHT22;2169;49.086;9.284;2023-02-26T04:02:26;-0.50;59.50
4312;DHT22;2169;49.086;9.284;2023-02-26T04:04:58;-0.50;59.50
4312;DHT22;2169;49.086;9.284;2023-02-26T04:07:26;-0.60;59.40
4312;DHT22;2169;49.086;9.284;2023-02-26T04:09:54;-0.60;59.50
4312;DHT22;2169;49.086;9.284;2023-02-26T04:12:23;-0.70;59.50
4312;DHT22;2169;49.086;9.284;2023-02-26T04:14:50;-0.70;59.50
4312;DHT22;2169;49.086;9.284;2023-02-26T04:17:17;-0.70;59.50
4312;DHT22;2169;49.086;9.284;2023-02-26T04:19:45;-0.70;59.50
4312;DHT22;2169;49.086;9.284;2023-02-26T04:22:13;-0.70;59.60
4312;DHT22;2169;49.086;9.284;2023-02-26T04:24:40;-0.80;59.50
4312;DHT22;2169;49.086;9.284;2023-02-26T04:27:07;-0.80;59.50
4312;DHT22;2169;49.086;9.284;2023-02-26T04:29:34;-0.90;59.40
4312;DHT22;2169;49.086;9.284;2023-02-26T04:32:02;-0.90;59.50
4312;DHT22;2169;49.086;9.284;2023-02-26T04:34:29;-1.00;59.50
4312;DHT22;2169;49.086;9.284;2023-02-26T04:36:57;-1.00;59.50
4312;DHT22;2169;49.086;9.284;2023-02-26T04:39:24;-1.00;59.50
4312;DHT22;2169;49.086;9.284;2023-02-26T04:41:51;-1.10;59.50
4312;DHT22;2169;49.086;9.284;2023-02-26T04:44:18;-1.10;59.60
4312;DHT22;2169;49.086;9.284;2023-02-26T04:46:45;-1.10;59.50
4312;DHT22;2169;49.086;9.284;2023-02-26T04:49:12;-1.20;59.50
4312;DHT22;2169;49.086;9.284;2023-02-26T04:51:39;-1.20;59.50
4312;DHT22;2169;49.086;9.284;2023-02-26T04:54:07;-1.20;59.60
4312;DHT22;2169;49.086;9.284;2023-02-26T04:56:34;-1.30;59.50
4312;DHT22;2169;49.086;9.284;2023-02-26T04:59:01;-1.30;59.60
4312;DHT22;2169;49.086;9.284;2023-02-26T05:01:28;-1.30;59.60
4312;DHT22;2169;49.086;9.284;2023-02-26T05:03:55;-1.40;59.60
4312;DHT22;2169;49.086;9.284;2023-02-26T05:06:22;-1.40;59.60
4312;DHT22;2169;49.086;9.284;2023-02-26T05:08:49;-1.40;59.70
4312;DHT22;2169;49.086;9.284;2023-02-26T05:11:17;-1.50;59.60
4312;DHT22;2169;49.086;9.284;2023-02-26T05:13:45;-1.50;59.60
4312;DHT22;2169;49.086;9.284;2023-02-26T05:16:12;-1.50;59.70
4312;DHT22;2169;49.086;9.284;2023-02-26T05:18:39;-1.60;59.70
4312;DHT22;2169;49.086;9.284;2023-02-26T05:21:06;-1.60;59.70
4312;DHT22;2169;49.086;9.284;2023-02-26T05:23:33;-1.60;60.40
4312;DHT22;2169;49.086;9.284;2023-02-26T05:26:00;-1.70;59.70
4312;DHT22;2169;49.086;9.284;2023-02-26T05:28:30;-1.70;59.80
4312;DHT22;2169;49.086;9.284;2023-02-26T05:30:58;-1.70;59.80
4312;DHT22;2169;49.086;9.284;2023-02-26T05:33:25;-1.80;59.80
4312;DHT22;2169;49.086;9.284;2023-02-26T05:35:52;-1.80;59.80
4312;DHT22;2169;49.086;9.284;2023-02-26T05:38:20;-1.90;59.80
4312;DHT22;2169;49.086;9.284;2023-02-26T05:40:47;-1.90;59.90
4312;DHT22;2169;49.086;9.284;2023-02-26T05:43:14;-1.90;59.90
4312;DHT22;2169;49.086;9.284;2023-02-26T05:45:42;-1.90;60.00
4312;DHT22;2169;49.086;9.284;2023-02-26T05:48:09;-2.00;60.00
4312;DHT22;2169;49.086;9.284;2023-02-26T05:50:37;-2.00;60.00
4312;DHT22;2169;49.086;9.284;2023-02-26T05:53:04;-2.00;60.00
4312;DHT22;2169;49.086;9.284;2023-02-26T05:55:31;-2.00;60.10
4312;DHT22;2169;49.086;9.284;2023-02-26T05:57:58;-2.00;60.10
4312;DHT22;2169;49.086;9.284;2023-02-26T06:00:25;-2.10;60.00
4312;DHT22;2169;49.086;9.284;2023-02-26T06:02:53;-2.10;60.10
4312;DHT22;2169;49.086;9.284;2023-02-26T06:05:20;-2.10;60.10
4312;DHT22;2169;49.086;9.284;2023-02-26T06:07:48;-2.10;60.20
4312;DHT22;2169;49.086;9.284;2023-02-26T06:10:15;-2.10;60.20
4312;DHT22;2169;49.086;9.284;2023-02-26T06:12:42;-2.10;60.30
4312;DHT22;2169;49.086;9.284;2023-02-26T06:15:10;-2.10;60.30
4312;DHT22;2169;49.086;9.284;2023-02-26T06:17:37;-2.10;61.00
4312;DHT22;2169;49.086;9.284;2023-02-26T06:20:07;-2.10;60.40
4312;DHT22;2169;49.086;9.284;2023-02-26T06:22:34;-2.10;60.40
4312;DHT22;2169;49.086;9.284;2023-02-26T06:25:02;-2.20;60.40
4312;DHT22;2169;49.086;9.284;2023-02-26T06:27:29;-2.10;60.60
4312;DHT22;2169;49.086;9.284;2023-02-26T06:29:55;-2.10;60.60
4312;DHT22;2169;49.086;9.284;2023-02-26T06:32:22;-2.10;60.60
4312;DHT22;2169;49.086;9.284;2023-02-26T06:34:49;-2.10;61.40
4312;DHT22;2169;49.086;9.284;2023-02-26T06:37:17;-2.10;60.70
4312;DHT22;2169;49.086;9.284;2023-02-26T06:39:44;-2.10;60.80
4312;DHT22;2169;49.086;9.284;2023-02-26T06:42:11;-2.10;60.80
4312;DHT22;2169;49.086;9.284;2023-02-26T06:44:38;-2.10;60.90
4312;DHT22;2169;49.086;9.284;2023-02-26T06:47:05;-2.10;60.90
4312;DHT22;2169;49.086;9.284;2023-02-26T06:49:32;-2.00;61.00
4312;DHT22;2169;49.086;9.284;2023-02-26T06:51:59;-2.00;61.10
4312;DHT22;2169;49.086;9.284;2023-02-26T06:54:27;-2.00;61.20
4312;DHT22;2169;49.086;9.284;2023-02-26T06:56:54;-2.00;61.20
4312;DHT22;2169;49.086;9.284;2023-02-26T06:59:22;-1.90;61.40
4312;DHT22;2169;49.086;9.284;2023-02-26T07:01:49;-1.90;61.50
4312;DHT22;2169;49.086;9.284;2023-02-26T07:04:16;-1.90;61.50
4312;DHT22;2169;49.086;9.284;2023-02-26T07:06:43;-1.80;61.70
4312;DHT22;2169;49.086;9.284;2023-02-26T07:09:10;-1.80;61.70
4312;DHT22;2169;49.086;9.284;2023-02-26T07:11:38;-1.70;61.80
4312;DHT22;2169;49.086;9.284;2023-02-26T07:14:05;-1.70;61.80
4312;DHT22;2169;49.086;9.284;2023-02-26T07:16:32;-1.70;61.90
4312;DHT22;2169;49.086;9.284;2023-02-26T07:19:01;-1.60;62.00
4312;DHT22;2169;49.086;9.284;2023-02-26T07:21:28;-1.60;62.00
4312;DHT22;2169;49.086;9.284;2023-02-26T07:23:55;-1.60;62.00
4312;DHT22;2169;49.086;9.284;2023-02-26T07:26:22;-1.50;62.10
4312;DHT22;2169;49.086;9.284;2023-02-26T07:28:50;-1.50;62.10
4312;DHT22;2169;49.086;9.284;2023-02-26T07:31:17;-1.50;62.10
4312;DHT22;2169;49.086;9.284;2023-02-26T07:33:44;-1.40;62.20
4312;DHT22;2169;49.086;9.284;2023-02-26T07:36:11;-1.40;62.20
4312;DHT22;2169;49.086;9.284;2023-02-26T07:38:39;-1.40;62.90
4312;DHT22;2169;49.086;9.284;2023-02-26T07:41:06;-1.30;62.40
4312;DHT22;2169;49.086;9.284;2023-02-26T07:43:33;-1.30;62.50
4312;DHT22;2169;49.086;9.284;2023-02-26T07:46:02;-1.20;62.50
4312;DHT22;2169;49.086;9.284;2023-02-26T07:48:30;-1.20;62.50
4312;DHT22;2169;49.086;9.284;2023-02-26T07:50:57;-1.10;62.60
4312;DHT22;2169;49.086;9.284;2023-02-26T07:53:24;-1.10;62.60
4312;DHT22;2169;49.086;9.284;2023-02-26T07:55:51;-1.10;62.70
4312;DHT22;2169;49.086;9.284;2023-02-26T07:58:19;-1.00;62.70
4312;DHT22;2169;49.086;9.284;2023-02-26T08:00:46;-1.00;62.70
4312;DHT22;2169;49.086;9.284;2023-02-26T08:03:14;-0.90;62.80
4312;DHT22;2169;49.086;9.284;2023-02-26T08:05:41;-0.80;62.90
4312;DHT22;2169;49.086;9.284;2023-02-26T08:08:08;-0.80;62.90
4312;DHT22;2169;49.086;9.284;2023-02-26T08:10:35;-0.70;63.00
4312;DHT22;2169;49.086;9.284;2023-02-26T08:13:04;-0.70;62.90
4312;DHT22;2169;49.086;9.284;2023-02-26T08:15:31;-0.70;63.00
4312;DHT22;2169;49.086;9.284;2023-02-26T08:17:58;-0.60;63.10
4312;DHT22;2169;49.086;9.284;2023-02-26T08:20:27;-0.60;63.10
4312;DHT22;2169;49.086;9.284;2023-02-26T08:22:54;-0.60;63.30
4312;DHT22;2169;49.086;9.284;2023-02-26T08:25:21;-0.60;63.20
4312;DHT22;2169;49.086;9.284;2023-02-26T08:27:48;-0.50;63.40
4312;DHT22;2169;49.086;9.284;2023-02-26T08:30:15;-0.50;63.50
4312;DHT22;2169;49.086;9.284;2023-02-26T08:32:42;-0.40;63.60
4312;DHT22;2169;49.086;9.284;2023-02-26T08:35:11;-0.40;63.70
4312;DHT22;2169;49.086;9.284;2023-02-26T08:37:39;-0.30;63.90
4312;DHT22;2169;49.086;9.284;2023-02-26T08:40:07;-0.30;63.90
4312;DHT22;2169;49.086;9.284;2023-02-26T08:42:35;-0.30;64.00
4312;DHT22;2169;49.086;9.284;2023-02-26T08:45:04;-0.20;64.20
4312;DHT22;2169;49.086;9.284;2023-02-26T08:47:32;-0.20;64.20
4312;DHT22;2169;49.086;9.284;2023-02-26T08:49:59;-0.10;64.40
4312;DHT22;2169;49.086;9.284;2023-02-26T08:52:27;-0.10;64.40
4312;DHT22;2169;49.086;9.284;2023-02-26T08:54:56;-0.10;64.50
4312;DHT22;2169;49.086;9.284;2023-02-26T08:57:23;0.00;64.60
4312;DHT22;2169;49.086;9.284;2023-02-26T08:59:50;0.00;64.60
4312;DHT22;2169;49.086;9.284;2023-02-26T09:02:17;0.00;64.60
4312;DHT22;2169;49.086;9.284;2023-02-26T09:04:44;0.10;64.70
4312;DHT22;2169;49.086;9.284;2023-02-26T09:07:11;0.10;64.60
4312;DHT22;2169;49.086;9.284;2023-02-26T09:09:39;0.10;64.70
4312;DHT22;2169;49.086;9.284;2023-02-26T09:12:08;0.10;64.70
4312;DHT22;2169;49.086;9.284;2023-02-26T09:14:35;0.10;64.70
4312;DHT22;2169;49.086;9.284;2023-02-26T09:17:02;0.20;64.80
4312;DHT22;2169;49.086;9.284;2023-02-26T09:19:29;0.20;64.70
4312;DHT22;2169;49.086;9.284;2023-02-26T09:21:56;0.30;64.80
4312;DHT22;2169;49.086;9.284;2023-02-26T09:24:23;0.30;64.70
4312;DHT22;2169;49.086;9.284;2023-02-26T09:26:52;0.30;64.70
4312;DHT22;2169;49.086;9.284;2023-02-26T09:29:20;0.40;64.70
4312;DHT22;2169;49.086;9.284;2023-02-26T09:31:48;0.40;64.70
4312;DHT22;2169;49.086;9.284;2023-02-26T09:34:15;0.50;64.80
4312;DHT22;2169;49.086;9.284;2023-02-26T09:36:42;0.50;64.60
4312;DHT22;2169;49.086;9.284;2023-02-26T09:39:11;0.50;64.60
4312;DHT22;2169;49.086;9.284;2023-02-26T09:41:41;0.50;64.60
4312;DHT22;2169;49.086;9.284;2023-02-26T09:44:16;0.60;64.70
4312;DHT22;2169;49.086;9.284;2023-02-26T09:46:52;0.60;64.70
4312;DHT22;2169;49.086;9.284;2023-02-26T09:49:32;0.70;64.70
4312;DHT22;2169;49.086;9.284;2023-02-26T09:52:03;0.80;64.70
4312;DHT22;2169;49.086;9.284;2023-02-26T09:54:38;0.80;64.60
4312;DHT22;2169;49.086;9.284;2023-02-26T09:57:12;0.90;64.70
4312;DHT22;2169;49.086;9.284;2023-02-26T09:59:41;0.90;64.60
4312;DHT22;2169;49.086;9.284;2023-02-26T10:02:16;1.00;64.70
4312;DHT22;2169;49.086;9.284;2023-02-26T10:04:49;1.10;64.60
4312;DHT22;2169;49.086;9.284;2023-02-26T10:07:25;1.10;64.50
4312;DHT22;2169;49.086;9.284;2023-02-26T10:10:02;1.10;64.40
4312;DHT22;2169;49.086;9.284;2023-02-26T10:12:34;1.20;64.50
4312;DHT22;2169;49.086;9.284;2023-02-26T10:15:07;1.20;64.50
4312;DHT22;2169;49.086;9.284;2023-02-26T10:17:50;1.30;64.40
4312;DHT22;2169;49.086;9.284;2023-02-26T10:20:21;1.40;64.30
4312;DHT22;2169;49.086;9.284;2023-02-26T10:22:57;1.40;64.20
4312;DHT22;2169;49.086;9.284;2023-02-26T10:25:30;1.50;64.20
4312;DHT22;2169;49.086;9.284;2023-02-26T10:28:04;1.50;64.00
4312;DHT22;2169;49.086;9.284;2023-02-26T10:30:36;1.60;63.90
4312;DHT22;2169;49.086;9.284;2023-02-26T10:33:12;1.60;63.70
4312;DHT22;2169;49.086;9.284;2023-02-26T10:35:48;1.70;63.70
4312;DHT22;2169;49.086;9.284;2023-02-26T10:38:21;1.70;63.50
4312;DHT22;2169;49.086;9.284;2023-02-26T10:40:57;1.80;63.50
4312;DHT22;2169;49.086;9.284;2023-02-26T10:43:29;1.80;63.50
4312;DHT22;2169;49.086;9.284;2023-02-26T10:46:09;1.90;63.40
4312;DHT22;2169;49.086;9.284;2023-02-26T10:48:49;1.90;63.00
4312;DHT22;2169;49.086;9.284;2023-02-26T10:51:25;1.90;62.90
4312;DHT22;2169;49.086;9.284;2023-02-26T10:53:57;2.00;62.80
4312;DHT22;2169;49.086;9.284;2023-02-26T10:56:28;2.00;62.70
4312;DHT22;2169;49.086;9.284;2023-02-26T10:58:55;2.00;62.60
4312;DHT22;2169;49.086;9.284;2023-02-26T11:01:27;2.10;62.60
4312;DHT22;2169;49.086;9.284;2023-02-26T11:03:57;2.10;62.40
4312;DHT22;2169;49.086;9.284;2023-02-26T11:06:29;2.10;62.10
4312;DHT22;2169;49.086;9.284;2023-02-26T11:08:58;2.10;62.00
4312;DHT22;2169;49.086;9.284;2023-02-26T11:11:40;2.20;62.00
4312;DHT22;2169;49.086;9.284;2023-02-26T11:14:07;2.20;61.80
4312;DHT22;2169;49.086;9.284;2023-02-26T11:16:35;2.20;61.60
4312;DHT22;2169;49.086;9.284;2023-02-26T11:19:08;2.20;61.40
4312;DHT22;2169;49.086;9.284;2023-02-26T11:21:39;2.20;61.10
4312;DHT22;2169;49.086;9.284;2023-02-26T11:24:11;2.20;61.20
4312;DHT22;2169;49.086;9.284;2023-02-26T11:26:42;2.20;61.10
4312;DHT22;2169;49.086;9.284;2023-02-26T11:29:14;2.30;61.20
4312;DHT22;2169;49.086;9.284;2023-02-26T11:31:41;2.30;61.10
4312;DHT22;2169;49.086;9.284;2023-02-26T11:34:11;2.30;61.00
4312;DHT22;2169;49.086;9.284;2023-02-26T11:36:40;2.30;61.10
4312;DHT22;2169;49.086;9.284;2023-02-26T11:39:14;2.30;61.10
4312;DHT22;2169;49.086;9.284;2023-02-26T11:41:44;2.40;61.20
4312;DHT22;2169;49.086;9.284;2023-02-26T11:44:14;2.40;61.30
4312;DHT22;2169;49.086;9.284;2023-02-26T11:46:45;2.40;61.00
4312;DHT22;2169;49.086;9.284;2023-02-26T11:49:18;2.40;60.90
4312;DHT22;2169;49.086;9.284;2023-02-26T11:51:47;2.50;60.80
4312;DHT22;2169;49.086;9.284;2023-02-26T11:54:21;2.50;60.80
4312;DHT22;2169;49.086;9.284;2023-02-26T11:56:48;2.50;60.70
4312;DHT22;2169;49.086;9.284;2023-02-26T11:59:17;2.50;60.40
4312;DHT22;2169;49.086;9.284;2023-02-26T12:01:45;2.60;60.30
4312;DHT22;2169;49.086;9.284;2023-02-26T12:04:14;2.60;60.30
4312;DHT22;2169;49.086;9.284;2023-02-26T12:06:43;2.70;60.30
4312;DHT22;2169;49.086;9.284;2023-02-26T12:09:12;2.70;60.20
4312;DHT22;2169;49.086;9.284;2023-02-26T12:11:59;2.80;60.30
4312;DHT22;2169;49.086;9.284;2023-02-26T12:14:42;2.80;60.00
4312;DHT22;2169;49.086;9.284;2023-02-26T12:17:21;2.80;59.90
4312;DHT22;2169;49.086;9.284;2023-02-26T12:19:54;2.80;59.60
4312;DHT22;2169;49.086;9.284;2023-02-26T12:22:45;2.90;59.70
4312;DHT22;2169;49.086;9.284;2023-02-26T12:25:31;2.90;59.40
4312;DHT22;2169;49.086;9.284;2023-02-26T12:34:25;3.00;59.20
4312;DHT22;2169;49.086;9.284;2023-02-26T12:37:08;2.90;58.80
4312;DHT22;2169;49.086;9.284;2023-02-26T12:39:52;2.90;58.80
4312;DHT22;2169;49.086;9.284;2023-02-26T12:42:33;2.90;58.80
4312;DHT22;2169;49.086;9.284;2023-02-26T12:45:12;2.80;58.90
4312;DHT22;2169;49.086;9.284;2023-02-26T12:48:31;2.80;59.00
4312;DHT22;2169;49.086;9.284;2023-02-26T12:51:07;2.80;59.10
4312;DHT22;2169;49.086;9.284;2023-02-26T12:54:07;2.80;59.10
4312;DHT22;2169;49.086;9.284;2023-02-26T12:57:14;2.80;59.10
4312;DHT22;2169;49.086;9.284;2023-02-26T13:00:09;2.90;59.00
4312;DHT22;2169;49.086;9.284;2023-02-26T13:08:34;2.90;58.70
4312;DHT22;2169;49.086;9.284;2023-02-26T13:11:15;2.90;58.60
4312;DHT22;2169;49.086;9.284;2023-02-26T13:14:17;2.90;58.50
4312;DHT22;2169;49.086;9.284;2023-02-26T13:16:51;3.00;58.60
4312;DHT22;2169;49.086;9.284;2023-02-26T13:19:30;3.00;58.40
4312;DHT22;2169;49.086;9.284;2023-02-26T13:22:04;3.10;58.10
4312;DHT22;2169;49.086;9.284;2023-02-26T13:24:37;3.10;58.00
4312;DHT22;2169;49.086;9.284;2023-02-26T13:27:07;3.20;57.90
4312;DHT22;2169;49.086;9.284;2023-02-26T13:29:40;3.30;57.40
4312;DHT22;2169;49.086;9.284;2023-02-26T13:32:14;3.30;57.00
4312;DHT22;2169;49.086;9.284;2023-02-26T13:34:46;3.40;56.80
4312;DHT22;2169;49.086;9.284;2023-02-26T13:37:25;3.40;56.50
4312;DHT22;2169;49.086;9.284;2023-02-26T13:40:04;3.50;56.30
4312;DHT22;2169;49.086;9.284;2023-02-26T13:42:44;3.50;55.80
4312;DHT22;2169;49.086;9.284;2023-02-26T13:45:29;3.50;55.50
4312;DHT22;2169;49.086;9.284;2023-02-26T13:48:08;3.50;55.20
4312;DHT22;2169;49.086;9.284;2023-02-26T13:50:45;3.50;55.10
4312;DHT22;2169;49.086;9.284;2023-02-26T13:53:41;3.50;55.00
4312;DHT22;2169;49.086;9.284;2023-02-26T13:56:14;3.50;54.60
4312;DHT22;2169;49.086;9.284;2023-02-26T13:58:42;3.40;54.50
4312;DHT22;2169;49.086;9.284;2023-02-26T14:01:15;3.50;54.50
4312;DHT22;2169;49.086;9.284;2023-02-26T14:03:46;3.50;54.30
4312;DHT22;2169;49.086;9.284;2023-02-26T14:06:39;3.50;54.20
4312;DHT22;2169;49.086;9.284;2023-02-26T14:12:24;3.50;53.90
4312;DHT22;2169;49.086;9.284;2023-02-26T14:15:26;3.60;54.30
4312;DHT22;2169;49.086;9.284;2023-02-26T14:18:02;3.70;54.30
4312;DHT22;2169;49.086;9.284;2023-02-26T14:20:31;3.70;54.20
4312;DHT22;2169;49.086;9.284;2023-02-26T14:26:10;3.70;53.70
4312;DHT22;2169;49.086;9.284;2023-02-26T14:28:44;3.70;53.40
4312;DHT22;2169;49.086;9.284;2023-02-26T14:31:20;3.60;53.00
4312;DHT22;2169;49.086;9.284;2023-02-26T14:34:12;3.60;53.10
4312;DHT22;2169;49.086;9.284;2023-02-26T14:36:44;3.60;52.80
4312;DHT22;2169;49.086;9.284;2023-02-26T14:39:22;3.50;52.60
4312;DHT22;2169;49.086;9.284;2023-02-26T14:41:52;3.50;52.80
4312;DHT22;2169;49.086;9.284;2023-02-26T14:44:24;3.50;52.80
4312;DHT22;2169;49.086;9.284;2023-02-26T14:46:52;3.50;52.70
4312;DHT22;2169;49.086;9.284;2023-02-26T14:49:25;3.50;52.80
4312;DHT22;2169;49.086;9.284;2023-02-26T14:52:14;3.50;52.70
4312;DHT22;2169;49.086;9.284;2023-02-26T14:54:52;3.50;52.60
4312;DHT22;2169;49.086;9.284;2023-02-26T14:57:29;3.50;52.70
4312;DHT22;2169;49.086;9.284;2023-02-26T15:00:12;3.60;52.80
4312;DHT22;2169;49.086;9.284;2023-02-26T15:02:57;3.60;52.80
4312;DHT22;2169;49.086;9.284;2023-02-26T15:08:31;3.60;52.30
4312;DHT22;2169;49.086;9.284;2023-02-26T15:11:12;3.60;51.50
4312;DHT22;2169;49.086;9.284;2023-02-26T15:13:54;3.60;51.50
4312;DHT22;2169;49.086;9.284;2023-02-26T15:16:35;3.60;51.50
4312;DHT22;2169;49.086;9.284;2023-02-26T15:19:13;3.60;51.30
4312;DHT22;2169;49.086;9.284;2023-02-26T15:21:54;3.60;51.60
4312;DHT22;2169;49.086;9.284;2023-02-26T15:24:28;3.60;51.60
4312;DHT22;2169;49.086;9.284;2023-02-26T15:26:59;3.60;51.60
4312;DHT22;2169;49.086;9.284;2023-02-26T15:29:29;3.60;51.70
4312;DHT22;2169;49.086;9.284;2023-02-26T15:31:58;3.70;51.80
4312;DHT22;2169;49.086;9.284;2023-02-26T15:34:28;3.70;51.70
4312;DHT22;2169;49.086;9.284;2023-02-26T15:36:55;3.60;51.70
4312;DHT22;2169;49.086;9.284;2023-02-26T15:39:24;3.60;51.70
4312;DHT22;2169;49.086;9.284;2023-02-26T15:41:53;3.60;51.60
4312;DHT22;2169;49.086;9.284;2023-02-26T15:44:23;3.60;51.40
4312;DHT22;2169;49.086;9.284;2023-02-26T15:46:56;3.50;51.20
4312;DHT22;2169;49.086;9.284;2023-02-26T15:49:26;3.50;51.40
4312;DHT22;2169;49.086;9.284;2023-02-26T15:51:55;3.50;51.20
4312;DHT22;2169;49.086;9.284;2023-02-26T15:54:26;3.50;51.20
4312;DHT22;2169;49.086;9.284;2023-02-26T15:56:56;3.50;51.20
4312;DHT22;2169;49.086;9.284;2023-02-26T15:59:26;3.50;51.30
4312;DHT22;2169;49.086;9.284;2023-02-26T16:01:54;3.50;51.40
4312;DHT22;2169;49.086;9.284;2023-02-26T16:04:22;3.50;51.30
4312;DHT22;2169;49.086;9.284;2023-02-26T16:06:52;3.40;50.80
4312;DHT22;2169;49.086;9.284;2023-02-26T16:09:25;3.40;50.80
4312;DHT22;2169;49.086;9.284;2023-02-26T16:11:56;3.40;51.00
4312;DHT22;2169;49.086;9.284;2023-02-26T16:14:26;3.30;50.90
4312;DHT22;2169;49.086;9.284;2023-02-26T16:16:55;3.30;50.90
4312;DHT22;2169;49.086;9.284;2023-02-26T16:19:31;3.30;51.00
4312;DHT22;2169;49.086;9.284;2023-02-26T16:22:01;3.30;51.10
4312;DHT22;2169;49.086;9.284;2023-02-26T16:24:29;3.30;51.20
4312;DHT22;2169;49.086;9.284;2023-02-26T16:27:01;3.30;51.20
4312;DHT22;2169;49.086;9.284;2023-02-26T16:29:32;3.30;51.10
4312;DHT22;2169;49.086;9.284;2023-02-26T16:32:02;3.30;51.10
4312;DHT22;2169;49.086;9.284;2023-02-26T16:34:36;3.30;50.70
4312;DHT22;2169;49.086;9.284;2023-02-26T16:37:34;3.30;50.40
4312;DHT22;2169;49.086;9.284;2023-02-26T16:40:15;3.20;50.20
4312;DHT22;2169;49.086;9.284;2023-02-26T16:42:52;3.20;50.20
4312;DHT22;2169;49.086;9.284;2023-02-26T16:45:24;3.20;50.10
4312;DHT22;2169;49.086;9.284;2023-02-26T16:48:03;3.20;50.10
4312;DHT22;2169;49.086;9.284;2023-02-26T16:50:33;3.10;50.00
4312;DHT22;2169;49.086;9.284;2023-02-26T16:53:04;3.10;49.80
4312;DHT22;2169;49.086;9.284;2023-02-26T16:55:35;3.10;49.80
4312;DHT22;2169;49.086;9.284;2023-02-26T16:58:06;3.00;49.70
4312;DHT22;2169;49.086;9.284;2023-02-26T17:00:37;3.00;49.70
4312;DHT22;2169;49.086;9.284;2023-02-26T17:03:08;3.00;49.70
4312;DHT22;2169;49.086;9.284;2023-02-26T17:05:40;3.00;49.80
4312;DHT22;2169;49.086;9.284;2023-02-26T17:08:14;2.90;49.80